PATA Airport Information

Runway Information
Runway 07 Length 4400 ft width 150 ft
Elevation 223 ft Threshold 0 ft Heading 89
Runway 25 Length 4400 ft Width 150 ft
Elevation 236 ft Threshold 0 ft Heading 269
Airport Frequencies
Airport Navaids
Type NDB Name Bear Creek Frequency 212 KHZ
Type VOR-DME Name Tanana Frequency 116600 KHZ
Airport Weather Information & NOTAM
ADDS - METARS form results

(0134 UTC 23 April 2018)
 
METAR text: PATA 230052Z 11008KT 10SM CLR 02/M09 A2985 RMK AO2 SLP114 T00171094 PNO
Conditions at: PATA (TANANA , AK, US) observed 0052 UTC 23 April 2018
Temperature: 1.7°C (35°F)
Dewpoint: -9.4°C (15°F) [RH = 43%]
Pressure (altimeter): 29.85 inches Hg (1010.9 mb)
[Sea-level pressure: 1011.4 mb]
Winds: from the ESE (110 degrees) at 9 MPH (8 knots; 4.2 m/s)
Visibility: 10 or more miles (16+ km)
Ceiling: at least 12,000 feet AGL
Clouds: sky clear below 12,000 feet AGL
Weather: no significant weather observed at this time